Time;durP1;ratioP1;P1;durP2;ratioP2;P2;SDS_P1;SDS_P2;PMS_P1;PMS_P2;Temp;Humidity;BMP_temperature;BMP_pressure;BME280_temperature;BME280_humidity;BME280_pressure;Samples;Min_cycle;Max_cycle;Signal;HPM_P1;HPM_P2
2022/04/09 00:59:29;52007.00;0.17;90.66;0.00;0.00;0.62;;;;;9.70;1.00;;;;;;2395758;41;3247;31
2022/04/09 05:23:45;950163.00;3.17;1644.40;106613.00;0.36;184.99;;;;;9.50;1.00;;;;;;2258919;61;964;-91
2022/04/09 05:36:20;1225672.00;4.09;2136.70;31194.00;0.10;54.65;;;;;9.80;1.00;;;;;;2258846;61;1002;-92
2022/04/09 06:00:05;408698.00;1.36;704.76;0.00;0.00;0.62;;;;;10.10;1.00;;;;;;2259101;61;1941;-91
2022/04/09 06:05:01;566448.00;1.89;976.32;7214.00;0.02;13.12;;;;;10.30;1.00;;;;;;2259215;61;1328;-88
2022/04/09 06:45:15;1031937.00;3.44;1789.12;18287.00;0.06;32.30;;;;;13.40;1.00;;;;;;2258767;61;972;-92
2022/04/09 08:25:58;374578.00;1.25;646.11;0.00;0.00;0.62;;;;;14.80;1.00;;;;;;2479020;41;3460;31
2022/04/09 09:01:14;813807.00;2.71;1405.21;9503.00;0.03;17.09;;;;;14.50;1.00;;;;;;2258492;61;1872;-91
2022/04/09 09:13:50;455368.00;1.52;785.02;0.00;0.00;0.62;;;;;13.80;1.00;;;;;;2258604;61;993;-89
2022/04/09 09:26:30;89943.00;0.30;156.21;0.00;0.00;0.62;;;;;13.90;1.00;;;;;;2254657;61;1014;-90
2022/04/09 09:28:57;290841.00;0.97;502.18;20036.00;0.07;35.33;;;;;13.70;1.00;;;;;;2252742;61;1336;-91
2022/04/09 09:34:08;1098749.00;3.66;1908.19;66792.00;0.22;116.22;;;;;13.60;1.00;;;;;;2254499;61;1330;-90
2022/04/09 10:29:49;195485.00;0.65;338.15;0.00;0.00;0.62;;;;;13.70;1.00;;;;;;2258670;61;1023;-89
2022/04/09 11:02:13;178387.00;0.59;308.71;0.00;0.00;0.62;;;;;13.10;1.00;;;;;;2258638;61;1896;-87
2022/04/09 11:07:15;200928.00;0.67;347.52;0.00;0.00;0.62;;;;;13.20;1.00;;;;;;2393228;41;3454;-89
2022/04/09 11:19:46;572891.00;1.91;987.43;21642.00;0.07;38.11;;;;;13.50;1.00;;;;;;1943776;57;3613;-89
2022/04/09 11:52:11;151397.00;0.50;262.22;0.00;0.00;0.62;;;;;13.60;1.00;;;;;;1932657;57;3565;-90
2022/04/09 12:49:41;920491.00;3.07;1592.14;76340.00;0.25;132.71;;;;;13.90;1.00;;;;;;821448;57;3573;-87
2022/04/09 13:04:40;610060.00;2.03;1051.59;91645.00;0.31;159.15;;;;;14.00;1.00;;;;;;2301731;56;3610;-90
2022/04/09 13:17:15;959810.00;3.20;1661.42;13346.00;0.04;23.75;;;;;14.00;1.00;;;;;;2258436;61;1350;-88
2022/04/09 13:19:43;658719.00;2.20;1135.72;0.00;0.00;0.62;;;;;13.70;1.00;;;;;;2256698;61;1636;-88
2022/04/09 13:22:12;675462.00;2.25;1164.71;35780.00;0.12;62.59;;;;;14.40;1.00;;;;;;2309510;56;3799;-89
2022/04/09 13:27:12;721689.00;2.41;1244.87;0.00;0.00;0.62;;;;;14.30;1.00;;;;;;2276554;41;3547;-89
2022/04/09 13:32:08;834131.00;2.78;1440.71;0.00;0.00;0.62;;;;;14.50;1.00;;;;;;2273167;40;3512;-88
2022/04/09 13:34:35;1209955.00;4.03;2108.23;86343.00;0.29;149.99;;;;;14.60;1.00;;;;;;2293840;57;3750;-90
2022/04/09 13:42:03;636467.00;2.12;1097.23;1933.00;0.01;3.97;;;;;15.00;1.00;;;;;;2264797;56;3474;-89
2022/04/09 13:47:04;1203237.00;4.01;2096.07;0.00;0.00;0.62;;;;;14.70;1.00;;;;;;2270709;41;3527;-88
2022/04/09 14:04:37;144646.00;0.48;250.58;0.00;0.00;0.62;;;;;14.30;1.00;;;;;;2259009;61;1017;-90
2022/04/09 14:09:37;371812.00;1.24;641.35;24605.00;0.08;43.24;;;;;14.20;1.00;;;;;;2258966;61;1339;-90
2022/04/09 14:34:37;80462.00;0.27;139.84;0.00;0.00;0.62;;;;;13.80;1.00;;;;;;2258378;61;1219;-88
2022/04/09 14:42:03;223304.00;0.74;386.03;56902.00;0.19;99.12;;;;;13.70;1.00;;;;;;2287439;40;3357;-87
2022/04/09 14:44:30;64456.00;0.21;112.18;0.00;0.00;0.62;;;;;13.90;1.00;;;;;;2256510;61;1447;-88
2022/04/09 14:46:58;24238.00;0.08;42.61;0.00;0.00;0.62;;;;;14.20;1.00;;;;;;2256643;61;1200;-88
2022/04/09 14:49:25;344385.00;1.15;594.21;0.00;0.00;0.62;;;;;13.70;1.00;;;;;;2256637;61;1377;-90
2022/04/09 14:51:53;34805.00;0.12;60.90;0.00;0.00;0.62;;;;;13.70;1.00;;;;;;2256633;61;980;-88
2022/04/09 14:56:50;245043.00;0.82;423.43;0.00;0.00;0.62;;;;;13.30;1.00;;;;;;2257964;61;1418;-87
2022/04/09 14:59:18;118148600.00;393.83;66806960.00;0.00;0.00;0.62;;;;;13.60;1.00;;;;;;2256462;61;1408;-88
2022/04/09 15:01:45;116287.00;0.39;201.68;0.00;0.00;0.62;;;;;13.70;1.00;;;;;;2256527;61;2395;-88
2022/04/09 15:04:12;11412.00;0.04;20.40;0.00;0.00;0.62;;;;;13.60;1.00;;;;;;2256446;61;1040;-88
2022/04/09 15:06:39;42127.00;0.14;73.57;0.00;0.00;0.62;;;;;14.00;1.00;;;;;;2256527;61;1069;-87
2022/04/09 15:09:08;54502.00;0.18;94.97;0.00;0.00;0.62;;;;;14.10;1.00;;;;;;2256555;61;1396;-88
2022/04/09 15:11:35;130056.00;0.43;225.43;0.00;0.00;0.62;;;;;14.10;1.00;;;;;;2256538;61;1035;-87
2022/04/09 15:14:02;284043.00;0.95;490.49;65402.00;0.22;113.81;;;;;13.80;1.00;;;;;;2256590;61;1092;-89
2022/04/09 15:16:29;180331.00;0.60;312.06;0.00;0.00;0.62;;;;;14.10;1.00;;;;;;2256438;61;1520;-88
2022/04/09 15:18:56;31906.00;0.11;55.88;0.00;0.00;0.62;;;;;14.10;1.00;;;;;;2256382;61;1290;-87
2022/04/09 15:21:23;105697.00;0.35;183.40;0.00;0.00;0.62;;;;;14.20;1.00;;;;;;2256501;61;1915;-88
2022/04/09 15:23:50;17949.00;0.06;31.72;0.00;0.00;0.62;;;;;14.30;1.00;;;;;;2256526;61;1100;-87
2022/04/09 15:26:18;31101.00;0.10;54.49;0.00;0.00;0.62;;;;;14.00;1.00;;;;;;2256410;61;1117;-88
2022/04/09 15:28:45;64632.00;0.22;112.48;0.00;0.00;0.62;;;;;14.20;1.00;;;;;;2256345;61;1372;-88
2022/04/09 15:31:14;75674.00;0.25;131.56;0.00;0.00;0.62;;;;;14.20;1.00;;;;;;2256271;61;2085;-89
2022/04/09 15:33:41;52162.00;0.17;90.93;0.00;0.00;0.62;;;;;14.30;1.00;;;;;;2256430;61;1102;-89
2022/04/09 15:41:07;309807.00;1.03;534.78;85585.00;0.29;148.68;;;;;13.90;1.00;;;;;;2257995;61;1895;-87
2022/04/09 15:43:39;0.00;0.00;0.62;0.00;0.00;0.62;;;;;13.80;1.00;;;;;;2256442;61;1135;-88
2022/04/09 15:46:05;12417.00;0.04;22.14;0.00;0.00;0.62;;;;;13.60;1.00;;;;;;2256490;61;989;-90
2022/04/09 15:48:32;214062.00;0.71;370.13;25503.00;0.09;44.80;;;;;13.50;1.00;;;;;;2256422;61;1299;-88
2022/04/09 15:50:59;14498.00;0.05;25.74;0.00;0.00;0.62;;;;;13.70;1.00;;;;;;2256484;61;1019;-88
2022/04/09 15:53:26;1338.00;0.00;2.94;0.00;0.00;0.62;;;;;13.70;1.00;;;;;;2256478;61;1071;-87
2022/04/09 15:58:26;115092.00;0.38;199.62;0.00;0.00;0.62;;;;;13.50;1.00;;;;;;2258140;61;1400;-88
2022/04/09 16:00:55;0.00;0.00;0.62;0.00;0.00;0.62;;;;;13.80;1.00;;;;;;2256297;61;2003;-88
2022/04/09 16:03:23;21876.00;0.07;38.52;0.00;0.00;0.62;;;;;13.90;1.00;;;;;;2256277;61;1111;-86
2022/04/09 16:05:50;142152.00;0.47;246.28;75797.00;0.25;131.78;;;;;13.50;1.00;;;;;;2256349;61;1038;-86
2022/04/09 16:08:17;126286.00;0.42;218.92;0.00;0.00;0.62;;;;;13.20;1.00;;;;;;2256220;61;1391;-87
2022/04/09 16:10:43;228548.00;0.76;395.05;0.00;0.00;0.62;;;;;13.30;1.00;;;;;;2256371;61;1029;-86
2022/04/09 16:13:10;67522.00;0.23;117.48;0.00;0.00;0.62;;;;;13.40;1.00;;;;;;2256350;61;1582;-88
2022/04/09 16:15:40;445411.00;1.48;767.89;16212.00;0.05;28.71;;;;;13.30;1.00;;;;;;2256026;61;1114;-88
2022/04/09 16:18:08;99342.00;0.33;172.44;0.00;0.00;0.62;;;;;13.30;1.00;;;;;;2256182;61;1445;-89
2022/04/09 16:20:38;15363.00;0.05;27.24;0.00;0.00;0.62;;;;;13.50;1.00;;;;;;2256270;61;1037;-88
2022/04/09 16:23:06;206575.00;0.69;357.24;69714.00;0.23;121.27;;;;;13.50;1.00;;;;;;2256267;61;1931;-86
2022/04/09 16:25:33;35049.00;0.12;61.32;0.00;0.00;0.62;;;;;13.70;1.00;;;;;;2256387;61;1037;-87
2022/04/09 16:27:59;104126.00;0.35;180.69;0.00;0.00;0.62;;;;;13.80;1.00;;;;;;2256291;61;1418;-88
2022/04/09 16:30:27;68828.00;0.23;119.74;0.00;0.00;0.62;;;;;13.80;1.00;;;;;;2256299;61;1572;-87
2022/04/09 16:32:54;54388.00;0.18;94.77;0.00;0.00;0.62;;;;;13.60;1.00;;;;;;2256225;61;1012;-88
2022/04/09 16:35:22;117716.00;0.39;204.14;0.00;0.00;0.62;;;;;13.60;1.00;;;;;;2256307;61;2358;-88
2022/04/09 16:37:50;31125.00;0.10;54.53;0.00;0.00;0.62;;;;;13.80;1.00;;;;;;2256272;61;1518;-87
2022/04/09 16:40:20;39722.00;0.13;69.41;0.00;0.00;0.62;;;;;14.00;1.00;;;;;;2256220;61;1020;-87
2022/04/09 16:42:47;6098.00;0.02;11.19;0.00;0.00;0.62;;;;;13.90;1.00;;;;;;2256242;61;2288;-87
2022/04/09 16:45:14;19802.00;0.07;34.93;0.00;0.00;0.62;;;;;14.10;1.00;;;;;;2256317;61;1121;-87
2022/04/09 16:47:41;0.00;0.00;0.62;0.00;0.00;0.62;;;;;13.70;1.00;;;;;;2256230;61;1348;-87
2022/04/09 16:50:09;6180.00;0.02;11.33;0.00;0.00;0.62;;;;;13.80;1.00;;;;;;2256212;61;1019;-87
2022/04/09 16:52:37;58998.00;0.20;102.74;0.00;0.00;0.62;;;;;13.80;1.00;;;;;;2256191;61;2035;-87
2022/04/09 16:55:04;14129.00;0.05;25.10;0.00;0.00;0.62;;;;;13.60;1.00;;;;;;2256187;61;1443;-87
2022/04/09 16:57:31;49575.00;0.17;86.45;0.00;0.00;0.62;;;;;13.30;1.00;;;;;;2256047;61;1290;-88
2022/04/09 16:59:58;2240.00;0.01;4.50;0.00;0.00;0.62;;;;;13.20;1.00;;;;;;2256139;61;1119;-87
2022/04/09 17:02:27;20497.00;0.07;36.13;0.00;0.00;0.62;;;;;13.00;1.00;;;;;;2256112;61;1920;-88
2022/04/09 17:04:54;101305.00;0.34;175.82;0.00;0.00;0.62;;;;;13.30;1.00;;;;;;2256176;61;1120;-87
2022/04/09 17:07:21;15227.00;0.05;27.00;0.00;0.00;0.62;;;;;13.40;1.00;;;;;;2260086;61;1608;-88
2022/04/09 17:09:50;130398.00;0.43;226.02;0.00;0.00;0.62;;;;;13.50;1.00;;;;;;2260149;61;1080;-89
2022/04/09 17:12:17;283586.00;0.95;489.70;15075.00;0.05;26.74;;;;;13.50;1.00;;;;;;2260139;61;2044;-87
2022/04/09 17:14:44;0.00;0.00;0.62;0.00;0.00;0.62;;;;;13.40;1.00;;;;;;2260141;61;970;-89
2022/04/09 17:17:11;1708.00;0.01;3.58;0.00;0.00;0.62;;;;;13.30;1.00;;;;;;2260101;61;1373;-88
2022/04/09 17:19:38;76463.00;0.25;132.93;0.00;0.00;0.62;;;;;13.30;1.00;;;;;;2260142;61;1119;-89
2022/04/09 17:22:05;0.00;0.00;0.62;0.00;0.00;0.62;;;;;13.40;1.00;;;;;;2260114;61;1916;-88
2022/04/09 17:24:32;53391.00;0.18;93.05;0.00;0.00;0.62;;;;;13.50;1.00;;;;;;2260047;61;994;-89
2022/04/09 17:27:01;132401.00;0.44;229.47;0.00;0.00;0.62;;;;;13.60;1.00;;;;;;2260510;61;2096;-88
2022/04/09 17:29:29;215031.00;0.72;371.79;0.00;0.00;0.62;;;;;13.90;1.00;;;;;;2260871;61;1044;-88
2022/04/09 17:31:57;74963.00;0.25;130.34;0.00;0.00;0.62;;;;;14.00;1.00;;;;;;2260828;61;1053;-87
2022/04/09 17:34:25;75867.00;0.25;131.90;0.00;0.00;0.62;;;;;14.10;1.00;;;;;;2260897;61;1107;-89
2022/04/09 17:36:53;9130.00;0.03;16.44;0.00;0.00;0.62;;;;;14.30;1.00;;;;;;2260826;61;1029;-88
2022/04/09 17:39:20;191584.00;0.64;331.44;32851.00;0.11;57.52;;;;;14.20;1.00;;;;;;2260835;61;1459;-88
2022/04/09 17:41:46;0.00;0.00;0.62;0.00;0.00;0.62;;;;;14.30;1.00;;;;;;2260783;61;1992;-89
2022/04/09 17:44:15;78770.00;0.26;136.91;0.00;0.00;0.62;;;;;14.40;1.00;;;;;;2260792;61;1024;-87
2022/04/09 17:46:42;117803.00;0.39;204.29;26576.00;0.09;46.66;;;;;14.40;1.00;;;;;;2260807;61;1495;-88
2022/04/09 17:49:11;188994.00;0.63;326.98;51652.00;0.17;90.04;;;;;14.30;1.00;;;;;;2260760;61;1422;-89
2022/04/09 17:51:39;156406.00;0.52;270.85;0.00;0.00;0.62;;;;;14.20;1.00;;;;;;2260773;61;968;-87
2022/04/09 17:54:06;369988.00;1.23;638.22;10611.00;0.04;19.01;;;;;13.80;1.00;;;;;;2260755;61;996;-88
2022/04/09 17:56:33;84638.00;0.28;147.05;0.00;0.00;0.62;;;;;13.50;1.00;;;;;;2260785;61;1079;-88
2022/04/09 17:59:00;81846.00;0.27;142.23;0.00;0.00;0.62;;;;;13.80;1.00;;;;;;2260408;61;1364;-87
2022/04/09 18:01:28;42559.00;0.14;74.32;0.00;0.00;0.62;;;;;13.60;1.00;;;;;;2260678;61;1997;-87
2022/04/09 18:03:56;294920.00;0.98;509.19;62330.00;0.21;108.50;;;;;13.60;1.00;;;;;;2260637;61;1595;-87
2022/04/09 18:06:24;29827.00;0.10;52.28;0.00;0.00;0.62;;;;;13.70;1.00;;;;;;2260639;61;1041;-87
2022/04/09 18:08:50;249398.00;0.83;430.92;29433.00;0.10;51.60;;;;;13.70;1.00;;;;;;2260618;61;1577;-88
2022/04/09 18:11:17;13215.00;0.04;23.52;0.00;0.00;0.62;;;;;13.30;1.00;;;;;;2260678;61;1083;-88
2022/04/09 18:13:44;300845.00;1.00;519.37;125484.00;0.42;217.54;;;;;13.10;1.00;;;;;;2260623;61;1645;-89
2022/04/09 18:16:14;112652.00;0.38;195.41;0.00;0.00;0.62;;;;;12.50;1.00;;;;;;2260736;61;945;-88
2022/04/09 18:18:42;126250.00;0.42;218.86;0.00;0.00;0.62;;;;;12.20;1.00;;;;;;2260683;61;1288;-87
2022/04/09 18:21:09;0.00;0.00;0.62;0.00;0.00;0.62;;;;;12.70;1.00;;;;;;2260685;61;1125;-88
2022/04/09 18:23:38;62551.00;0.21;108.89;0.00;0.00;0.62;;;;;12.90;1.00;;;;;;2260671;61;1957;-88
2022/04/09 18:26:06;121552.00;0.41;210.76;0.00;0.00;0.62;;;;;12.10;1.00;;;;;;2260729;61;1084;-87
2022/04/09 18:28:33;32791.00;0.11;57.41;0.00;0.00;0.62;;;;;11.00;1.00;;;;;;2260599;61;1363;-86
2022/04/09 18:30:59;143562.00;0.48;248.71;0.00;0.00;0.62;;;;;10.60;1.00;;;;;;2260723;61;943;-85
2022/04/09 18:33:26;54259.00;0.18;94.55;0.00;0.00;0.62;;;;;10.90;1.00;;;;;;2260632;61;1027;-86
2022/04/09 18:35:55;224057.00;0.75;387.32;31511.00;0.11;55.20;;;;;11.00;1.00;;;;;;2260640;61;1014;-84
2022/04/09 18:38:22;52671.00;0.18;91.81;0.00;0.00;0.62;;;;;11.10;1.00;;;;;;2260344;61;1281;-86
2022/04/09 18:40:49;38465.00;0.13;67.23;0.00;0.00;0.62;;;;;10.90;1.00;;;;;;2260559;61;1422;-88
2022/04/09 18:43:16;550522.00;1.84;948.86;110257.00;0.37;191.27;;;;;10.90;1.00;;;;;;2260566;61;1920;-86
2022/04/09 18:45:44;200125.00;0.67;346.14;0.00;0.00;0.62;;;;;10.70;1.00;;;;;;2260552;61;1035;-88
2022/04/09 18:48:13;115819.00;0.39;200.87;0.00;0.00;0.62;;;;;10.00;1.00;;;;;;2260597;61;1384;-87
2022/04/09 18:50:40;138306.00;0.46;239.65;0.00;0.00;0.62;;;;;9.20;1.00;;;;;;2260572;61;1436;-87
2022/04/09 18:53:09;0.00;0.00;0.62;0.00;0.00;0.62;;;;;8.80;1.00;;;;;;2260608;61;1009;-87
2022/04/09 18:55:36;62934.00;0.21;109.55;0.00;0.00;0.62;;;;;9.00;1.00;;;;;;2260621;61;1098;-87
2022/04/09 18:58:03;56055.00;0.19;97.66;0.00;0.00;0.62;;;;;9.20;1.00;;;;;;2260443;61;1387;-87
2022/04/09 19:00:30;25504.00;0.09;44.80;0.00;0.00;0.62;;;;;9.00;1.00;;;;;;2260567;61;1099;-87
2022/04/09 19:02:57;17817.00;0.06;31.49;0.00;0.00;0.62;;;;;8.60;1.00;;;;;;2260494;61;1923;-89
2022/04/09 19:05:24;183650.00;0.61;317.77;23015.00;0.08;40.49;;;;;8.00;1.00;;;;;;2260560;61;1092;-89
2022/04/09 19:07:51;83103.00;0.28;144.40;0.00;0.00;0.62;;;;;8.00;1.00;;;;;;2260435;61;1326;-87
2022/04/09 19:10:19;14125.00;0.05;25.10;0.00;0.00;0.62;;;;;7.90;1.00;;;;;;2260531;61;1145;-87
2022/04/09 19:12:47;79379.00;0.26;137.96;0.00;0.00;0.62;;;;;7.40;1.00;;;;;;2260489;61;1076;-86
2022/04/09 19:15:14;134587.00;0.45;233.24;0.00;0.00;0.62;;;;;7.30;1.00;;;;;;2260518;61;1087;-87
2022/04/09 19:17:41;131942.00;0.44;228.68;0.00;0.00;0.62;;;;;7.50;1.00;;;;;;2260524;61;1345;-88
2022/04/09 19:20:11;19674.00;0.07;34.71;0.00;0.00;0.62;;;;;7.40;1.00;;;;;;2260550;61;939;-89
2022/04/09 19:22:38;194506.00;0.65;336.47;0.00;0.00;0.62;;;;;7.20;1.00;;;;;;2260284;61;2017;-88
2022/04/09 19:25:08;141859.00;0.47;245.78;0.00;0.00;0.62;;;;;7.50;1.00;;;;;;2260283;61;1664;-89
2022/04/09 19:27:36;38697.00;0.13;67.63;0.00;0.00;0.62;;;;;7.60;1.00;;;;;;2260314;61;2042;-88
2022/04/09 19:30:04;56839.00;0.19;99.01;0.00;0.00;0.62;;;;;7.30;1.00;;;;;;2260418;61;1528;-88
2022/04/09 19:32:32;18987.00;0.06;33.52;0.00;0.00;0.62;;;;;7.20;1.00;;;;;;2260485;61;931;-87
2022/04/09 19:34:59;54993.00;0.18;95.82;0.00;0.00;0.62;;;;;7.10;1.00;;;;;;2260530;61;999;-90
2022/04/09 19:37:26;126761.00;0.42;219.74;0.00;0.00;0.62;;;;;7.00;1.00;;;;;;2260363;61;1365;-89
2022/04/09 19:39:53;30297.00;0.10;53.10;0.00;0.00;0.62;;;;;7.10;1.00;;;;;;2260459;61;1133;-88
2022/04/09 19:42:20;67275.00;0.22;117.05;0.00;0.00;0.62;;;;;7.90;1.00;;;;;;2260281;61;2002;-88
2022/04/09 19:44:49;9133.00;0.03;16.45;0.00;0.00;0.62;;;;;8.30;1.00;;;;;;2260248;61;1613;-89
2022/04/09 19:47:17;98320.00;0.33;170.67;0.00;0.00;0.62;;;;;8.50;1.00;;;;;;2260377;61;1646;-88
2022/04/09 19:49:44;26287.00;0.09;46.16;0.00;0.00;0.62;;;;;8.10;1.00;;;;;;2260432;61;1236;-90
2022/04/09 19:52:11;43364.00;0.14;75.71;0.00;0.00;0.62;;;;;8.10;1.00;;;;;;2260445;61;1020;-89
2022/04/09 19:54:38;15221.00;0.05;26.99;0.00;0.00;0.62;;;;;8.20;1.00;;;;;;2260442;61;1072;-87
2022/04/09 19:57:05;59969.00;0.20;104.42;0.00;0.00;0.62;;;;;8.30;1.00;;;;;;2260299;61;1359;-90
2022/04/09 19:59:32;51171.00;0.17;89.21;0.00;0.00;0.62;;;;;8.50;1.00;;;;;;2260475;61;1036;-89
2022/04/09 20:02:00;113579.00;0.38;197.01;0.00;0.00;0.62;;;;;8.50;1.00;;;;;;2260420;61;1987;-87
2022/04/09 20:04:29;39711.00;0.13;69.39;0.00;0.00;0.62;;;;;8.40;1.00;;;;;;2260236;61;1076;-90
2022/04/09 20:06:56;134841.00;0.45;233.68;0.00;0.00;0.62;;;;;8.10;1.00;;;;;;2260405;61;1121;-88
2022/04/09 20:09:23;97463.00;0.32;169.19;0.00;0.00;0.62;;;;;8.50;1.00;;;;;;2260316;61;1667;-87
2022/04/09 20:11:50;9510.00;0.03;17.10;0.00;0.00;0.62;;;;;8.80;1.00;;;;;;2260319;61;1670;-89
2022/04/09 20:14:17;49231.00;0.16;85.86;0.00;0.00;0.62;;;;;9.00;1.00;;;;;;2260409;61;1008;-88
2022/04/09 20:16:45;80265.00;0.27;139.50;0.00;0.00;0.62;;;;;8.70;1.00;;;;;;2260406;61;1113;-88
2022/04/09 20:19:13;122781.00;0.41;212.88;0.00;0.00;0.62;;;;;8.70;1.00;;;;;;2260316;61;1254;-88
2022/04/09 20:21:42;24575.00;0.08;43.19;0.00;0.00;0.62;;;;;9.00;1.00;;;;;;2260259;61;1650;-88
2022/04/09 20:24:09;32681.00;0.11;57.22;0.00;0.00;0.62;;;;;9.10;1.00;;;;;;2260276;61;2007;-88
2022/04/09 20:26:36;0.00;0.00;0.62;0.00;0.00;0.62;;;;;9.60;1.00;;;;;;2260387;61;1195;-87
2022/04/09 20:29:03;155043.00;0.52;268.50;48481.00;0.16;84.56;;;;;9.80;1.00;;;;;;2260212;61;1294;-88
2022/04/09 20:31:30;22838.00;0.08;40.18;0.00;0.00;0.62;;;;;9.40;1.00;;;;;;2260371;61;1158;-86
2022/04/09 20:33:57;10987.00;0.04;19.66;0.00;0.00;0.62;;;;;9.80;1.00;;;;;;2260178;61;961;-87
2022/04/09 20:36:25;39935.00;0.13;69.78;0.00;0.00;0.62;;;;;10.40;1.00;;;;;;2260280;61;1091;-87
2022/04/09 20:38:53;17230.00;0.06;30.47;0.00;0.00;0.62;;;;;10.90;1.00;;;;;;2260191;61;1257;-87
2022/04/09 20:41:20;80094.00;0.27;139.20;0.00;0.00;0.62;;;;;11.10;1.00;;;;;;2260300;61;1597;-86
2022/04/09 20:43:47;69380.00;0.23;120.69;0.00;0.00;0.62;;;;;11.00;1.00;;;;;;2260212;61;2006;-89
2022/04/09 20:46:14;126267.00;0.42;218.89;0.00;0.00;0.62;;;;;11.00;1.00;;;;;;2260160;61;1127;-89
2022/04/09 20:48:45;220207.00;0.73;380.70;35784.00;0.12;62.59;;;;;10.80;1.00;;;;;;2260118;61;1372;-85
2022/04/09 20:51:12;33611.00;0.11;58.83;0.00;0.00;0.62;;;;;10.70;1.00;;;;;;2260253;61;1032;-86
2022/04/09 20:53:41;128144.00;0.43;222.13;26951.00;0.09;47.31;;;;;10.60;1.00;;;;;;2260206;61;1318;-88
2022/04/09 20:56:08;153245.00;0.51;265.40;8832.00;0.03;15.93;;;;;11.00;1.00;;;;;;2260179;61;1221;-87
2022/04/09 20:58:35;68409.00;0.23;119.01;0.00;0.00;0.62;;;;;11.40;1.00;;;;;;2260207;61;1407;-87
2022/04/09 21:01:02;133020.00;0.44;230.54;0.00;0.00;0.62;;;;;11.00;1.00;;;;;;2259970;61;993;-89
2022/04/09 21:03:29;68159.00;0.23;118.58;0.00;0.00;0.62;;;;;11.10;1.00;;;;;;2260064;61;2010;-87
2022/04/09 21:05:56;9355.00;0.03;16.83;0.00;0.00;0.62;;;;;11.20;1.00;;;;;;2260115;61;2217;-89
2022/04/09 21:08:23;140944.00;0.47;244.20;0.00;0.00;0.62;;;;;11.50;1.00;;;;;;2260171;61;1290;-86
2022/04/09 21:10:58;76949.00;0.26;133.77;0.00;0.00;0.62;;;;;11.30;1.00;;;;;;2260150;61;1093;-88
2022/04/09 21:13:25;37578.00;0.13;65.70;0.00;0.00;0.62;;;;;10.80;1.00;;;;;;2260221;61;1076;-89
2022/04/09 21:15:52;102176.00;0.34;177.33;0.00;0.00;0.62;;;;;11.10;1.00;;;;;;2260181;61;1137;-87
2022/04/09 21:18:20;176578.00;0.59;305.60;0.00;0.00;0.62;;;;;10.80;1.00;;;;;;2260126;61;1263;-89
2022/04/09 21:20:47;92957.00;0.31;161.41;0.00;0.00;0.62;;;;;11.10;1.00;;;;;;2260116;61;1179;-88
2022/04/09 21:23:14;224160.00;0.75;387.50;0.00;0.00;0.62;;;;;11.30;1.00;;;;;;2258616;61;1912;-88
2022/04/09 21:25:42;93805.00;0.31;162.88;0.00;0.00;0.62;;;;;11.20;1.00;;;;;;2260183;61;1118;-86
2022/04/09 21:28:12;28329.00;0.09;49.69;0.00;0.00;0.62;;;;;11.60;1.00;;;;;;2260130;61;1329;-88
2022/04/09 21:30:39;0.00;0.00;0.62;0.00;0.00;0.62;;;;;12.20;1.00;;;;;;2260181;61;1030;-89
2022/04/09 21:33:06;82132.00;0.27;142.72;0.00;0.00;0.62;;;;;12.40;1.00;;;;;;2260189;61;1022;-88
2022/04/09 21:35:33;155918.00;0.52;270.01;0.00;0.00;0.62;;;;;11.90;1.00;;;;;;2260134;61;969;-87
2022/04/09 21:38:01;44535.00;0.15;77.73;0.00;0.00;0.62;;;;;11.50;1.00;;;;;;2259985;61;1555;-86
2022/04/09 21:40:28;49483.00;0.16;86.29;0.00;0.00;0.62;;;;;11.70;1.00;;;;;;2260164;61;973;-88
2022/04/09 21:42:55;23677.00;0.08;41.64;0.00;0.00;0.62;;;;;11.80;1.00;;;;;;2259909;61;1915;-87
2022/04/09 21:45:23;19121.00;0.06;33.75;0.00;0.00;0.62;;;;;11.70;1.00;;;;;;2259973;61;1047;-87
2022/04/09 21:47:50;117753.00;0.39;204.21;0.00;0.00;0.62;;;;;11.60;1.00;;;;;;2260119;61;1367;-88
2022/04/09 21:50:17;0.00;0.00;0.62;0.00;0.00;0.62;;;;;12.10;1.00;;;;;;2260015;61;1494;-88
2022/04/09 21:52:46;37355.00;0.12;65.31;0.00;0.00;0.62;;;;;11.80;1.00;;;;;;2260100;61;1030;-88
2022/04/09 21:55:13;23474.00;0.08;41.29;0.00;0.00;0.62;;;;;11.90;1.00;;;;;;2259970;61;1609;-88
2022/04/09 21:57:40;341845.00;1.14;589.84;37875.00;0.13;66.21;;;;;11.90;1.00;;;;;;2259925;61;1373;-88
2022/04/09 22:00:10;89107.00;0.30;154.77;21634.00;0.07;38.10;;;;;11.30;1.00;;;;;;2260015;61;1123;-88
2022/04/09 22:02:39;58000.00;0.19;101.02;0.00;0.00;0.62;;;;;10.70;1.00;;;;;;2259975;61;1907;-86
2022/04/09 22:05:06;73244.00;0.24;127.37;0.00;0.00;0.62;;;;;10.50;1.00;;;;;;2260040;61;892;-89
2022/04/09 22:07:33;34868.00;0.12;61.01;0.00;0.00;0.62;;;;;10.60;1.00;;;;;;2259920;61;1522;-88
2022/04/09 22:10:00;88139.00;0.29;153.09;0.00;0.00;0.62;;;;;10.70;1.00;;;;;;2260070;61;1041;-86
2022/04/09 22:12:27;0.00;0.00;0.62;0.00;0.00;0.62;;;;;10.80;1.00;;;;;;2260261;61;1063;-88
2022/04/09 22:14:54;121863.00;0.41;211.30;0.00;0.00;0.62;;;;;11.20;1.00;;;;;;2260674;61;982;-87
2022/04/09 22:17:21;134182.00;0.45;232.54;0.00;0.00;0.62;;;;;11.50;1.00;;;;;;2260723;61;1389;-87
2022/04/09 22:19:49;87865.00;0.29;152.62;0.00;0.00;0.62;;;;;11.80;1.00;;;;;;2260477;61;1451;-88
2022/04/09 22:22:16;84208.00;0.28;146.31;0.00;0.00;0.62;;;;;11.70;1.00;;;;;;2260711;61;961;-87
2022/04/09 22:24:43;133284.00;0.44;230.99;39465.00;0.13;68.96;;;;;11.90;1.00;;;;;;2260648;61;2013;-89
2022/04/09 22:27:11;8173.00;0.03;14.78;0.00;0.00;0.62;;;;;11.90;1.00;;;;;;2260692;61;1277;-87
2022/04/09 22:29:38;170031.00;0.57;294.32;34217.00;0.11;59.88;;;;;12.00;1.00;;;;;;2260708;61;1090;-88
2022/04/09 22:32:08;11467.00;0.04;20.49;0.00;0.00;0.62;;;;;11.80;1.00;;;;;;2260690;61;1104;-88
2022/04/09 22:34:40;0.00;0.00;0.62;0.00;0.00;0.62;;;;;11.80;1.00;;;;;;2260759;61;1251;-87
2022/04/09 22:37:08;24950.00;0.08;43.84;0.00;0.00;0.62;;;;;11.70;1.00;;;;;;2260695;61;1377;-87
2022/04/09 22:39:35;4016.00;0.01;7.58;0.00;0.00;0.62;;;;;11.40;1.00;;;;;;2260592;61;1089;-88
2022/04/09 22:42:02;26369.00;0.09;46.30;0.00;0.00;0.62;;;;;11.20;1.00;;;;;;2260596;61;756;-87
2022/04/09 22:44:30;0.00;0.00;0.62;0.00;0.00;0.62;;;;;10.80;1.00;;;;;;2260566;61;2000;-88
2022/04/09 22:46:57;94884.00;0.32;164.74;0.00;0.00;0.62;;;;;11.00;1.00;;;;;;2260683;61;1142;-87
2022/04/09 22:49:24;48713.00;0.16;84.96;0.00;0.00;0.62;;;;;11.30;1.00;;;;;;2260605;61;1302;-88
2022/04/09 22:51:51;115980.00;0.39;201.15;0.00;0.00;0.62;;;;;11.30;1.00;;;;;;2260610;61;1057;-87
2022/04/09 22:54:19;51016.00;0.17;88.94;0.00;0.00;0.62;;;;;11.40;1.00;;;;;;2260569;61;1083;-88
2022/04/09 22:56:46;4566.00;0.02;8.53;0.00;0.00;0.62;;;;;10.90;1.00;;;;;;2260523;61;1004;-88
2022/04/09 22:59:13;185577.00;0.62;321.09;0.00;0.00;0.62;;;;;11.00;1.00;;;;;;2260492;61;1337;-88
2022/04/09 23:24:05;986342.00;3.29;1708.30;57052.00;0.19;99.38;;;;;9.40;1.00;;;;;;2296797;56;3649;-89
2022/04/09 23:34:05;1712708.00;5.71;3050.14;62918.00;0.21;109.52;;;;;8.20;1.00;;;;;;2258609;61;1311;-89
2022/04/09 23:54:11;149570.00;0.50;259.07;0.00;0.00;0.62;;;;;8.80;1.00;;;;;;2295651;56;3716;-87
